Pellston Regional Airport of Emmet County Airport
KPLN : rendu visible

Aérodrome :











RETROUVEZ-NOUS SUR...

 
LOGIN :

S'inscrire | Disclaimer

   EN    FR    IT 

 









Légende :    VFR   VFR Marginal   IFR   IFR Intensif   IFR Très Intensif
Visi : 
Plafond : 
>= 8 km
>= 3000ft
5 à 8 km
1000 à 3000 ft
1500m à 5 km
500 à 1000 ft
800 à 1500m
200 à 500 ft
< 800m
< 200 ft
Symboles :   Orages  Brouillard  Fortes neiges  Fortes précipitations  Vent > 20 kt






- Altitude de l'aérodrome : 721 ft
- Code IATA : PLN


KPLN - Pellston Regional of Emmet County

DERNIER METAR :
  • 091554Z AUTO 26008G16KT 10SM BKN015 OVC026 25/21 A3002 RMK AO2 SLP163 T02500211

METARs EXPIRÉS :
  • 091454Z AUTO 22007KT 9SM OVC014 25/22 A3001 RMK AO2 SLP161 T02500217 51004
  • 091437Z AUTO 23010G15KT 10SM BKN017 26/22 A3001 RMK AO2 T02560217
  • 091354Z AUTO 24003KT 10SM CLR 26/22 A3001 RMK AO2 SLP159 T02560217

TAF KPLN
Valide du 09 à 16h jusqu'au 10 à 12h UTC


091537Z 0916/1012 24006KT P6SM BKN015 OVC040
FM091800 24008KT P6SM SCT040 BKN080
FM092300 21005KT P6SM FEW050 SCT180
FM100200 VRB03KT P6SM FEW080 SCT200 WS012/23030KT
FM100700 19005KT P6SM BKN100
FM101000 21006KT P6SM BKN050
FIR KZMP / Amérique du Nord



MET'MAP, la Météo Aéronautique d'un coup d'oeil ! - Copyright ORBIFLY Décembre 2007 - Disclaimer

ORBIFLY MET'MAP TEAM :

Programmation & Développement : Alexandra Zaïnal
Sur une idée originale de : Baudouin d'Aumeries
Assistance à la programmation : Marc-Olivier Méhu
Soutien technique & logistique : Manuel Goepfert

Contact : metmap@orbifly.com




SOURCES & CREDITS :

   NOAA       Earth
Advisory